createdAt,value
2018-01-15T00:01:00.858Z,1.28
2018-01-15T00:02:07.031Z,1.25
2018-01-15T00:03:13.004Z,1.29
2018-01-15T00:04:19.217Z,1.31
2018-01-15T00:05:25.398Z,1.26
2018-01-15T00:06:31.593Z,1.33
2018-01-15T00:07:37.769Z,1.33
2018-01-15T00:08:43.967Z,1.36
2018-01-15T00:09:50.134Z,1.39
2018-01-15T00:10:56.395Z,1.40
2018-01-15T00:12:02.580Z,1.38
2018-01-15T00:13:08.727Z,1.33
2018-01-15T00:14:14.871Z,1.26
2018-01-15T00:15:21.061Z,1.29
2018-01-15T00:16:27.323Z,1.22
2018-01-15T00:17:33.476Z,1.19
2018-01-15T00:18:39.671Z,1.19
2018-01-15T00:19:45.850Z,1.25
2018-01-15T00:20:51.706Z,1.24
2018-01-15T00:21:57.548Z,1.23
2018-01-15T00:23:03.744Z,1.26
2018-01-15T00:24:09.913Z,1.23
2018-01-15T00:25:21.336Z,1.25
2018-01-15T00:26:27.513Z,1.21
2018-01-15T00:27:33.740Z,1.23
2018-01-15T00:28:39.963Z,1.22
2018-01-15T00:29:46.104Z,1.25
2018-01-15T00:30:52.355Z,1.36
2018-01-15T00:31:58.508Z,1.39
2018-01-15T00:33:04.646Z,1.32
2018-01-15T00:34:10.853Z,1.23
2018-01-15T00:35:17.031Z,1.19
2018-01-15T00:36:23.194Z,1.21
2018-01-15T00:37:29.511Z,1.24
2018-01-15T00:38:35.662Z,1.29
2018-01-15T00:39:41.823Z,1.30
2018-01-15T00:40:48.004Z,1.31
2018-01-15T00:41:54.152Z,1.26
2018-01-15T00:43:00.323Z,1.25
2018-01-15T00:44:06.506Z,1.20
2018-01-15T00:45:12.652Z,1.24
2018-01-15T00:46:18.853Z,1.24
2018-01-15T00:47:25.017Z,1.27
2018-01-15T00:48:31.226Z,1.23
2018-01-15T00:49:37.356Z,1.20
2018-01-15T00:50:43.544Z,1.17
2018-01-15T00:51:49.721Z,1.15
2018-01-15T00:52:55.879Z,1.19
2018-01-15T00:54:02.012Z,1.20
2018-01-15T00:55:16.579Z,1.15
2018-01-15T00:56:22.792Z,1.20
2018-01-15T00:57:29.015Z,1.20
2018-01-15T00:58:35.245Z,1.18
2018-01-15T00:59:41.479Z,1.16
2018-01-15T01:00:47.694Z,1.24
2018-01-15T01:01:54.259Z,1.22
2018-01-15T01:03:00.428Z,1.22
2018-01-15T01:04:06.684Z,1.24
2018-01-15T01:05:12.920Z,1.25
2018-01-15T01:06:19.075Z,1.22
2018-01-15T01:07:25.230Z,1.24
2018-01-15T01:08:31.405Z,1.24
2018-01-15T01:09:37.651Z,1.25
2018-01-15T01:10:44.082Z,1.26
2018-01-15T01:11:50.314Z,1.27
2018-01-15T01:12:56.483Z,1.26
2018-01-15T01:14:05.694Z,1.27
2018-01-15T01:15:12.817Z,1.28
2018-01-15T01:16:18.946Z,1.31
2018-01-15T01:17:25.106Z,1.30
2018-01-15T01:18:31.323Z,1.29
2018-01-15T01:19:37.531Z,1.29
2018-01-15T01:20:43.792Z,1.30
2018-01-15T01:21:50.149Z,1.31
2018-01-15T01:22:56.342Z,1.34
2018-01-15T01:24:02.526Z,1.32
2018-01-15T01:25:08.742Z,1.32
2018-01-15T01:26:22.636Z,1.33
2018-01-15T01:27:28.491Z,1.34
2018-01-15T01:28:34.659Z,1.34
2018-01-15T01:29:40.635Z,1.37
2018-01-15T01:30:46.813Z,1.38
2018-01-15T01:31:53.022Z,1.35
2018-01-15T01:32:59.239Z,1.36
2018-01-15T01:34:05.092Z,1.39
2018-01-15T01:35:11.350Z,1.37
2018-01-15T01:36:17.602Z,1.42
2018-01-15T01:37:23.811Z,1.46
2018-01-15T01:38:29.965Z,1.45
2018-01-15T01:39:37.016Z,1.43
2018-01-15T01:40:43.222Z,1.44
2018-01-15T01:41:49.405Z,1.48
2018-01-15T01:42:55.603Z,1.43
2018-01-15T01:44:01.837Z,1.50
2018-01-15T01:45:08.011Z,1.45
2018-01-15T01:46:14.221Z,1.49
2018-01-15T01:47:20.385Z,1.48
2018-01-15T01:48:37.776Z,1.46
2018-01-15T01:49:43.713Z,1.45
2018-01-15T01:50:49.916Z,1.45
2018-01-15T01:51:56.091Z,1.45
2018-01-15T01:53:02.294Z,1.46
2018-01-15T01:54:08.137Z,1.47
2018-01-15T01:55:14.019Z,1.45
2018-01-15T01:56:19.881Z,1.43
2018-01-15T01:57:26.033Z,1.45
2018-01-15T01:58:32.280Z,1.48
2018-01-15T01:59:38.432Z,1.47
2018-01-15T02:00:44.583Z,1.47
2018-01-15T02:01:49.761Z,1.50
2018-01-15T02:02:55.971Z,1.53
2018-01-15T02:04:02.103Z,1.53
2018-01-15T02:05:08.311Z,1.54
2018-01-15T02:06:14.545Z,1.56
2018-01-15T02:07:20.752Z,1.59
2018-01-15T02:08:26.282Z,1.59
2018-01-15T02:09:32.446Z,1.60
2018-01-15T02:10:38.598Z,1.60
2018-01-15T02:11:44.782Z,1.52
2018-01-15T02:12:51.549Z,1.52
2018-01-15T02:13:57.707Z,1.51
2018-01-15T02:15:03.502Z,1.46
2018-01-15T02:16:09.736Z,1.44
2018-01-15T02:17:15.954Z,1.42
2018-01-15T02:18:22.171Z,1.42
2018-01-15T02:19:27.970Z,1.44
2018-01-15T02:20:34.154Z,1.41
2018-01-15T02:21:40.308Z,1.36
2018-01-15T02:22:46.464Z,1.33
2018-01-15T02:23:52.623Z,1.33
2018-01-15T02:24:58.155Z,1.32
2018-01-15T02:26:04.031Z,1.35
2018-01-15T02:27:10.281Z,1.33
2018-01-15T02:28:16.462Z,1.33
2018-01-15T02:29:22.617Z,1.34
2018-01-15T02:30:28.807Z,1.28
2018-01-15T02:31:34.998Z,1.20
2018-01-15T02:32:46.359Z,1.16
2018-01-15T02:33:52.584Z,1.12
2018-01-15T02:34:59.762Z,1.13
2018-01-15T02:36:08.879Z,1.18
2018-01-15T02:37:15.034Z,1.20
2018-01-15T02:38:21.226Z,1.20
2018-01-15T02:39:27.490Z,1.17
2018-01-15T02:40:33.890Z,1.12
2018-01-15T02:41:40.117Z,1.15
2018-01-15T02:42:45.925Z,1.18
2018-01-15T02:43:52.075Z,1.10
2018-01-15T02:44:58.250Z,1.04
2018-01-15T02:46:04.399Z,1.10
2018-01-15T02:47:10.599Z,1.12
2018-01-15T02:48:16.747Z,1.03
2018-01-15T02:49:22.908Z,0.94
2018-01-15T02:50:28.800Z,0.89
2018-01-15T02:51:36.613Z,0.92
2018-01-15T02:52:43.859Z,0.87
2018-01-15T02:53:52.008Z,0.84
2018-01-15T02:54:59.374Z,0.82
2018-01-15T02:56:06.879Z,0.83
2018-01-15T02:57:14.177Z,0.79
2018-01-15T02:58:21.713Z,0.78
2018-01-15T02:59:29.185Z,0.79
2018-01-15T03:00:36.547Z,0.81
2018-01-15T03:01:44.050Z,0.78
2018-01-15T03:02:51.497Z,0.75
2018-01-15T03:04:00.081Z,0.75
2018-01-15T03:05:07.523Z,0.76
2018-01-15T03:06:16.330Z,0.76
2018-01-15T03:07:23.418Z,0.69
2018-01-15T03:08:30.726Z,0.66
2018-01-15T03:09:38.487Z,0.65
2018-01-15T03:10:46.292Z,0.68
2018-01-15T03:11:53.800Z,0.69
2018-01-15T03:13:00.980Z,0.68
2018-01-15T03:14:09.099Z,0.68
2018-01-15T03:15:16.554Z,0.68
2018-01-15T03:16:23.815Z,0.67
2018-01-15T03:17:31.420Z,0.70
2018-01-15T03:18:38.629Z,0.71
2018-01-15T03:19:46.045Z,0.70
2018-01-15T03:20:53.066Z,0.63
2018-01-15T03:22:00.119Z,0.61
2018-01-15T03:23:08.145Z,0.58
2018-01-15T03:24:15.688Z,0.55
2018-01-15T03:25:22.681Z,0.61
2018-01-15T03:26:29.612Z,0.63
2018-01-15T03:27:36.978Z,0.69
2018-01-15T03:28:45.657Z,0.66
2018-01-15T03:29:53.091Z,0.65
2018-01-15T03:31:00.200Z,0.60
2018-01-15T03:32:06.888Z,0.61
2018-01-15T03:33:14.077Z,0.59
2018-01-15T03:34:20.816Z,0.66
2018-01-15T03:35:28.011Z,0.69
2018-01-15T03:36:35.909Z,0.70
2018-01-15T03:37:42.357Z,0.67
2018-01-15T03:38:49.835Z,0.58
2018-01-15T03:39:56.783Z,0.47
2018-01-15T03:41:04.506Z,0.42
2018-01-15T03:42:11.434Z,0.40
2018-01-15T03:43:17.783Z,0.42
2018-01-15T03:44:24.473Z,0.43
2018-01-15T03:45:31.085Z,0.47
2018-01-15T03:46:44.921Z,0.47
2018-01-15T03:47:53.064Z,0.49
2018-01-15T03:48:59.768Z,0.48
2018-01-15T03:50:06.790Z,0.41
2018-01-15T03:51:13.692Z,0.41
2018-01-15T03:52:19.949Z,0.42
2018-01-15T03:53:27.380Z,0.45
2018-01-15T03:54:33.924Z,0.45
2018-01-15T03:55:40.120Z,0.44
2018-01-15T03:56:47.978Z,0.44
2018-01-15T03:57:54.613Z,0.42
2018-01-15T03:59:01.186Z,0.40
2018-01-15T04:00:07.942Z,0.39
2018-01-15T04:01:14.900Z,0.41
2018-01-15T04:02:21.631Z,0.37
2018-01-15T04:03:27.939Z,0.35
2018-01-15T04:04:35.038Z,0.41
2018-01-15T04:05:42.593Z,0.44
2018-01-15T04:06:50.023Z,0.48
2018-01-15T04:07:57.001Z,0.48
2018-01-15T04:09:03.765Z,0.40
2018-01-15T04:10:10.765Z,0.40
2018-01-15T04:11:18.444Z,0.40
2018-01-15T04:12:26.248Z,0.38
2018-01-15T04:13:33.748Z,0.39
2018-01-15T04:14:41.434Z,0.39
2018-01-15T04:15:48.481Z,0.37
2018-01-15T04:16:55.826Z,0.32
2018-01-15T04:18:03.790Z,0.33
2018-01-15T04:19:12.199Z,0.24
2018-01-15T04:20:19.286Z,0.29
2018-01-15T04:21:27.913Z,0.28
2018-01-15T04:22:35.639Z,0.30
2018-01-15T04:23:43.121Z,0.34
2018-01-15T04:24:49.801Z,0.31
2018-01-15T04:25:57.421Z,0.35
2018-01-15T04:27:05.748Z,0.33
2018-01-15T04:28:12.904Z,0.26
2018-01-15T04:29:21.386Z,0.26
2018-01-15T04:30:33.670Z,0.24
2018-01-15T04:31:40.876Z,0.31
2018-01-15T04:32:47.844Z,0.30
2018-01-15T04:33:54.878Z,0.27
2018-01-15T04:35:02.641Z,0.28
2018-01-15T04:36:11.507Z,0.23
2018-01-15T04:37:17.755Z,0.28
2018-01-15T04:38:23.989Z,0.30
2018-01-15T04:39:30.150Z,0.26
2018-01-15T04:40:36.303Z,0.22
2018-01-15T04:41:42.473Z,0.20
2018-01-15T04:42:48.428Z,0.26
2018-01-15T04:43:54.586Z,0.26
2018-01-15T04:45:00.799Z,0.18
2018-01-15T04:46:06.968Z,0.16
2018-01-15T04:47:13.213Z,0.21
2018-01-15T04:48:19.394Z,0.20
2018-01-15T04:49:25.584Z,0.22
2018-01-15T04:50:31.642Z,0.23
2018-01-15T04:51:37.830Z,0.23
2018-01-15T04:52:44.065Z,0.27
2018-01-15T04:53:50.226Z,0.27
2018-01-15T04:54:56.936Z,0.16
2018-01-15T04:56:06.238Z,0.15
2018-01-15T04:57:14.529Z,0.11
2018-01-15T04:58:22.237Z,0.15
2018-01-15T04:59:29.637Z,0.13
2018-01-15T05:00:36.983Z,0.08
2018-01-15T05:01:45.817Z,0.09
2018-01-15T05:02:54.437Z,0.08
2018-01-15T05:04:01.944Z,0.06
2018-01-15T05:05:08.736Z,0.09
2018-01-15T05:06:16.887Z,0.07
2018-01-15T05:07:24.407Z,0.06
2018-01-15T05:08:33.125Z,0.11
2018-01-15T05:09:41.067Z,0.07
2018-01-15T05:10:51.653Z,-0.05
2018-01-15T05:12:00.465Z,0.00
2018-01-15T05:13:07.751Z,-0.08
2018-01-15T05:14:14.503Z,-0.08
2018-01-15T05:15:20.823Z,-0.06
2018-01-15T05:16:27.021Z,0.00
2018-01-15T05:17:33.276Z,0.00
2018-01-15T05:18:40.066Z,-0.07
2018-01-15T05:19:46.377Z,-0.01
2018-01-15T05:20:52.664Z,-0.07
2018-01-15T05:21:58.954Z,-0.08
2018-01-15T05:23:08.158Z,-0.07
2018-01-15T05:24:14.323Z,-0.06
2018-01-15T05:25:20.483Z,-0.01
2018-01-15T05:26:26.732Z,-0.02
2018-01-15T05:27:32.977Z,0.04
2018-01-15T05:28:39.169Z,0.06
2018-01-15T05:29:45.326Z,0.05
2018-01-15T05:30:51.493Z,0.08
2018-01-15T05:31:57.740Z,0.11
2018-01-15T05:33:03.914Z,0.08
2018-01-15T05:34:10.160Z,0.08
2018-01-15T05:35:16.396Z,0.04
2018-01-15T05:36:22.672Z,0.04
2018-01-15T05:37:29.418Z,0.06
2018-01-15T05:38:37.603Z,0.05
2018-01-15T05:39:45.619Z,0.03
2018-01-15T05:40:52.312Z,0.03
2018-01-15T05:41:58.481Z,-0.03
2018-01-15T05:43:04.695Z,-0.03
2018-01-15T05:44:10.843Z,-0.02
2018-01-15T05:45:17.037Z,0.01
2018-01-15T05:46:23.199Z,-0.10
2018-01-15T05:47:29.331Z,-0.12
2018-01-15T05:48:35.565Z,-0.10
2018-01-15T05:49:41.418Z,-0.11
2018-01-15T05:50:47.601Z,-0.07
2018-01-15T05:51:53.783Z,-0.10
2018-01-15T05:53:00.023Z,-0.17
2018-01-15T05:54:06.172Z,-0.13
2018-01-15T05:55:12.495Z,-0.06
2018-01-15T05:56:18.726Z,-0.07
2018-01-15T05:57:24.966Z,-0.07
2018-01-15T05:58:31.197Z,-0.17
2018-01-15T05:59:37.455Z,-0.15
2018-01-15T06:00:43.610Z,-0.07
2018-01-15T06:01:49.798Z,-0.13
2018-01-15T06:02:55.975Z,-0.12
2018-01-15T06:04:02.198Z,-0.09
2018-01-15T06:05:08.444Z,-0.09
2018-01-15T06:06:14.698Z,-0.10
2018-01-15T06:07:20.857Z,-0.08
2018-01-15T06:08:26.996Z,-0.10
2018-01-15T06:09:33.183Z,-0.06
2018-01-15T06:10:39.431Z,-0.12
2018-01-15T06:11:45.657Z,-0.12
2018-01-15T06:12:51.908Z,-0.11
2018-01-15T06:14:00.052Z,-0.16
2018-01-15T06:15:06.205Z,-0.15
2018-01-15T06:16:12.398Z,-0.17
2018-01-15T06:17:18.582Z,-0.18
2018-01-15T06:18:24.795Z,-0.16
2018-01-15T06:19:31.008Z,-0.18
2018-01-15T06:20:37.197Z,-0.22
2018-01-15T06:21:43.419Z,-0.21
2018-01-15T06:22:49.714Z,-0.15
2018-01-15T06:23:55.919Z,-0.22
2018-01-15T06:25:02.102Z,-0.19
2018-01-15T06:26:08.298Z,-0.36
2018-01-15T06:27:14.502Z,-0.32
2018-01-15T06:28:20.751Z,-0.28
2018-01-15T06:29:26.892Z,-0.35
2018-01-15T06:30:33.079Z,-0.32
2018-01-15T06:31:39.250Z,-0.28
2018-01-15T06:32:45.418Z,-0.30
2018-01-15T06:33:51.558Z,-0.32
2018-01-15T06:34:57.768Z,-0.29
2018-01-15T06:36:03.972Z,-0.26
2018-01-15T06:37:10.168Z,-0.19
2018-01-15T06:38:16.407Z,-0.15
2018-01-15T06:39:22.587Z,-0.18
2018-01-15T06:40:28.761Z,-0.19
2018-01-15T06:41:34.974Z,-0.31
2018-01-15T06:42:41.192Z,-0.29
2018-01-15T06:43:47.390Z,-0.24
2018-01-15T06:44:53.580Z,-0.23
2018-01-15T06:45:59.716Z,-0.25
2018-01-15T06:47:05.894Z,-0.29
2018-01-15T06:48:12.091Z,-0.27
2018-01-15T06:49:18.297Z,-0.27
2018-01-15T06:50:24.555Z,-0.25
2018-01-15T06:51:30.803Z,-0.19
2018-01-15T06:52:36.936Z,-0.24
2018-01-15T06:53:43.087Z,-0.22
2018-01-15T06:54:49.239Z,-0.26
2018-01-15T06:55:55.453Z,-0.27
2018-01-15T06:57:01.576Z,-0.21
2018-01-15T06:58:07.862Z,-0.24
2018-01-15T06:59:14.064Z,-0.19
2018-01-15T07:00:20.257Z,-0.19
2018-01-15T07:01:26.411Z,-0.24
2018-01-15T07:02:32.571Z,-0.24
2018-01-15T07:03:38.745Z,-0.25
2018-01-15T07:04:44.964Z,-0.22
2018-01-15T07:05:51.132Z,-0.17
2018-01-15T07:06:57.354Z,-0.17
2018-01-15T07:08:03.558Z,-0.20
2018-01-15T07:09:09.757Z,-0.17
2018-01-15T07:10:15.903Z,-0.17
2018-01-15T07:11:22.047Z,-0.11
2018-01-15T07:12:28.183Z,-0.06
2018-01-15T07:13:34.369Z,-0.10
2018-01-15T07:14:40.554Z,-0.15
2018-01-15T07:15:46.687Z,-0.18
2018-01-15T07:16:52.842Z,-0.20
2018-01-15T07:17:58.999Z,-0.17
2018-01-15T07:19:05.241Z,-0.22
2018-01-15T07:20:11.403Z,-0.18
2018-01-15T07:21:17.718Z,-0.18
2018-01-15T07:22:23.902Z,-0.15
2018-01-15T07:23:30.040Z,-0.14
2018-01-15T07:24:36.180Z,-0.15
2018-01-15T07:25:42.323Z,-0.08
2018-01-15T07:26:48.724Z,-0.06
2018-01-15T07:27:54.911Z,-0.09
2018-01-15T07:29:01.072Z,-0.11
2018-01-15T07:30:07.267Z,-0.12
2018-01-15T07:31:13.718Z,-0.13
2018-01-15T07:32:19.930Z,-0.10
2018-01-15T07:33:26.079Z,-0.12
2018-01-15T07:34:32.233Z,-0.16
2018-01-15T07:35:38.433Z,-0.12
2018-01-15T07:36:44.639Z,-0.08
2018-01-15T07:37:50.818Z,-0.04
2018-01-15T07:38:57.147Z,-0.05
2018-01-15T07:40:03.307Z,-0.07
2018-01-15T07:41:09.456Z,-0.03
2018-01-15T07:42:15.614Z,-0.05
2018-01-15T07:43:21.807Z,-0.01
2018-01-15T07:44:28.059Z,0.01
2018-01-15T07:45:34.245Z,0.00
2018-01-15T07:46:40.419Z,0.00
2018-01-15T07:47:46.546Z,-0.03
2018-01-15T07:48:52.738Z,0.04
2018-01-15T07:50:04.935Z,-0.02
2018-01-15T07:51:11.188Z,-0.03
2018-01-15T07:52:17.318Z,0.00
2018-01-15T07:53:23.540Z,-0.01
2018-01-15T07:54:29.685Z,0.03
2018-01-15T07:55:36.792Z,-0.04
2018-01-15T07:56:42.932Z,0.02
2018-01-15T07:57:49.081Z,-0.02
2018-01-15T07:58:55.404Z,0.00
2018-01-15T08:00:01.692Z,0.02
2018-01-15T08:01:07.676Z,0.06
2018-01-15T08:02:13.797Z,0.04
2018-01-15T08:03:20.017Z,0.00
2018-01-15T08:04:26.139Z,0.09
2018-01-15T08:05:32.323Z,0.15
2018-01-15T08:06:38.511Z,0.17
2018-01-15T08:07:44.674Z,0.22
2018-01-15T08:08:50.883Z,0.29
2018-01-15T08:09:57.010Z,0.26
2018-01-15T08:11:04.115Z,0.31
2018-01-15T08:12:10.372Z,0.32
2018-01-15T08:13:16.529Z,0.36
2018-01-15T08:14:22.985Z,0.43
2018-01-15T08:15:29.262Z,0.47
2018-01-15T08:16:35.398Z,0.29
2018-01-15T08:17:41.548Z,0.35
2018-01-15T08:18:47.715Z,0.40
2018-01-15T08:19:53.904Z,0.48
2018-01-15T08:21:00.145Z,0.55
2018-01-15T08:22:06.490Z,0.56
2018-01-15T08:23:12.674Z,0.53
2018-01-15T08:24:18.854Z,0.52
2018-01-15T08:25:25.062Z,0.46
2018-01-15T08:26:31.445Z,0.61
2018-01-15T08:27:37.308Z,0.67
2018-01-15T08:28:43.756Z,0.81
2018-01-15T08:29:50.796Z,0.83
2018-01-15T08:30:57.225Z,0.87
2018-01-15T08:32:03.383Z,0.71
2018-01-15T08:33:09.544Z,0.79
2018-01-15T08:34:15.780Z,0.86
2018-01-15T08:35:21.938Z,0.81
2018-01-15T08:36:28.176Z,0.95
2018-01-15T08:37:34.393Z,1.00
2018-01-15T08:38:40.647Z,1.05
2018-01-15T08:39:48.443Z,1.07
2018-01-15T08:40:54.562Z,1.10
2018-01-15T08:42:00.723Z,1.14
2018-01-15T08:43:06.866Z,1.13
2018-01-15T08:44:13.417Z,1.19
2018-01-15T08:45:19.290Z,1.24
2018-01-15T08:46:25.455Z,1.22
2018-01-15T08:47:31.618Z,1.21
2018-01-15T08:48:37.789Z,1.13
2018-01-15T08:49:43.850Z,1.24
2018-01-15T08:50:50.056Z,1.39
2018-01-15T08:51:56.219Z,1.44
2018-01-15T08:53:02.355Z,1.47
2018-01-15T08:54:08.683Z,1.48
2018-01-15T08:55:14.879Z,1.39
2018-01-15T08:56:21.082Z,1.38
2018-01-15T08:57:27.275Z,1.40
2018-01-15T08:58:33.658Z,1.45
2018-01-15T08:59:39.963Z,1.59
2018-01-15T09:00:46.166Z,1.67
2018-01-15T09:01:52.313Z,1.61
2018-01-15T09:02:58.524Z,1.67
2018-01-15T09:04:04.383Z,1.61
2018-01-15T09:05:10.544Z,1.65
2018-01-15T09:06:16.722Z,1.69
2018-01-15T09:07:22.831Z,1.69
2018-01-15T09:08:29.068Z,1.64
2018-01-15T09:09:35.481Z,1.65
2018-01-15T09:10:41.806Z,1.55
2018-01-15T09:11:47.965Z,1.52
2018-01-15T09:12:54.134Z,1.55
2018-01-15T09:14:00.312Z,1.63
2018-01-15T09:15:06.569Z,1.60
2018-01-15T09:16:12.703Z,1.63
2018-01-15T09:17:18.855Z,1.70
2018-01-15T09:18:25.073Z,1.73
2018-01-15T09:19:31.452Z,1.75
2018-01-15T09:20:37.601Z,1.73
2018-01-15T09:21:43.726Z,1.72
2018-01-15T09:22:49.885Z,1.78
2018-01-15T09:23:55.637Z,1.75
2018-01-15T09:25:01.810Z,1.77
2018-01-15T09:26:07.971Z,1.79
2018-01-15T09:27:14.153Z,1.78
2018-01-15T09:28:20.366Z,1.83
2018-01-15T09:29:26.551Z,1.86
2018-01-15T09:30:32.798Z,1.88
2018-01-15T09:31:38.958Z,1.91
2018-01-15T09:32:45.604Z,1.85
2018-01-15T09:33:51.495Z,1.88
2018-01-15T09:34:57.715Z,1.97
2018-01-15T09:36:03.895Z,1.97
2018-01-15T09:37:10.056Z,1.99
2018-01-15T09:38:16.740Z,1.92
2018-01-15T09:39:23.676Z,1.93
2018-01-15T09:40:29.890Z,1.95
2018-01-15T09:43:18.221Z,1.98
2018-01-15T09:44:24.612Z,1.97
2018-01-15T09:45:30.787Z,1.97
2018-01-15T09:46:36.893Z,1.97
2018-01-15T09:47:43.097Z,1.98
2018-01-15T09:48:49.348Z,2.13
2018-01-15T09:49:56.443Z,2.15
2018-01-15T09:51:03.670Z,2.17
2018-01-15T09:52:10.829Z,2.04
2018-01-15T09:53:19.085Z,2.07
2018-01-15T09:54:26.902Z,2.00
2018-01-15T09:55:34.442Z,2.07
2018-01-15T09:56:41.625Z,2.05
2018-01-15T09:57:48.448Z,2.00
2018-01-15T09:58:55.288Z,2.03
2018-01-15T10:00:03.550Z,2.02
2018-01-15T10:01:11.493Z,2.12
2018-01-15T10:02:19.203Z,2.25
2018-01-15T10:03:27.143Z,2.26
2018-01-15T10:04:34.915Z,2.34
2018-01-15T10:05:42.979Z,2.52
2018-01-15T10:06:50.249Z,2.46
2018-01-15T10:07:57.576Z,2.43
2018-01-15T10:09:04.127Z,2.43
2018-01-15T10:10:11.096Z,2.44
2018-01-15T10:11:18.279Z,2.48
2018-01-15T10:12:26.407Z,2.64
2018-01-15T10:13:33.968Z,2.67
2018-01-15T10:14:42.359Z,2.76
2018-01-15T10:15:49.577Z,2.82
2018-01-15T10:16:56.981Z,2.81
2018-01-15T10:18:03.959Z,2.82
2018-01-15T10:19:10.666Z,2.85
2018-01-15T10:20:17.974Z,2.65
2018-01-15T10:21:25.114Z,2.75
2018-01-15T10:22:32.622Z,2.83
2018-01-15T10:23:39.975Z,2.74
2018-01-15T10:24:47.903Z,2.85
2018-01-15T10:25:55.251Z,2.86
2018-01-15T10:27:02.255Z,2.89
2018-01-15T10:28:09.681Z,2.93
2018-01-15T10:29:16.611Z,3.00
2018-01-15T10:30:23.765Z,2.97
2018-01-15T10:31:31.116Z,3.00
2018-01-15T10:32:40.842Z,2.91
2018-01-15T10:33:48.232Z,2.83
2018-01-15T10:34:55.866Z,2.93
2018-01-15T10:36:02.640Z,2.94
2018-01-15T10:37:14.893Z,3.04
2018-01-15T10:38:21.176Z,3.13
2018-01-15T10:39:27.349Z,3.02
2018-01-15T10:40:33.554Z,3.16
2018-01-15T10:41:40.299Z,3.08
2018-01-15T10:42:46.475Z,3.03
2018-01-15T10:43:52.716Z,3.15
2018-01-15T10:44:58.953Z,3.20
2018-01-15T10:46:05.142Z,3.11
2018-01-15T10:47:11.382Z,3.16
2018-01-15T10:48:17.306Z,3.20
2018-01-15T10:49:24.305Z,3.29
2018-01-15T10:50:31.134Z,3.41
2018-01-15T10:51:37.156Z,3.41
2018-01-15T10:52:43.397Z,3.49
2018-01-15T10:53:49.627Z,3.50
2018-01-15T10:54:55.938Z,3.51
2018-01-15T10:56:02.527Z,3.52
2018-01-15T10:57:08.859Z,3.48
2018-01-15T10:58:15.464Z,3.49
2018-01-15T10:59:21.718Z,3.52
2018-01-15T11:00:33.330Z,3.43
2018-01-15T11:01:39.392Z,3.33
2018-01-15T11:02:45.596Z,3.33
2018-01-15T11:03:51.792Z,3.34
2018-01-15T11:04:58.655Z,3.30
2018-01-15T11:06:04.501Z,3.37
2018-01-15T11:07:10.668Z,3.33
2018-01-15T11:08:16.935Z,3.33
2018-01-15T11:09:23.188Z,3.40
2018-01-15T11:10:32.596Z,3.40
2018-01-15T11:11:38.828Z,3.43
2018-01-15T11:12:45.015Z,3.54
2018-01-15T11:13:51.319Z,3.52
2018-01-15T11:14:58.348Z,3.47
2018-01-15T11:16:04.620Z,3.62
2018-01-15T11:17:11.007Z,3.72
2018-01-15T11:18:16.851Z,3.74
2018-01-15T11:19:23.135Z,3.77
2018-01-15T11:20:29.372Z,3.79
2018-01-15T11:21:35.560Z,3.86
2018-01-15T11:22:42.505Z,3.74
2018-01-15T11:23:49.136Z,3.82
2018-01-15T11:24:55.463Z,3.83
2018-01-15T11:26:02.028Z,3.89
2018-01-15T11:27:08.271Z,4.01
2018-01-15T11:28:15.120Z,4.15
2018-01-15T11:29:21.392Z,4.16
2018-01-15T11:30:27.568Z,4.19
2018-01-15T11:31:34.099Z,4.20
2018-01-15T11:32:40.290Z,4.20
2018-01-15T11:33:46.595Z,4.08
2018-01-15T11:34:52.971Z,4.12
2018-01-15T11:35:59.232Z,3.97
2018-01-15T11:37:05.568Z,3.93
2018-01-15T11:38:11.487Z,3.93
2018-01-15T11:39:18.188Z,3.72
2018-01-15T11:40:25.098Z,3.69
2018-01-15T11:41:31.479Z,3.67
2018-01-15T11:42:38.019Z,3.73
2018-01-15T11:43:44.491Z,3.66
2018-01-15T11:44:51.789Z,3.72
2018-01-15T11:45:58.057Z,3.82
2018-01-15T11:47:04.800Z,3.84
2018-01-15T11:48:10.785Z,3.88
2018-01-15T11:49:17.045Z,3.92
2018-01-15T11:50:23.251Z,4.02
2018-01-15T11:51:29.502Z,3.81
2018-01-15T11:52:35.856Z,3.88
2018-01-15T11:53:42.104Z,3.90
2018-01-15T11:54:49.177Z,3.89
2018-01-15T11:55:56.190Z,3.85
2018-01-15T11:57:02.795Z,3.92
2018-01-15T11:58:09.662Z,3.81
2018-01-15T11:59:15.603Z,3.76
2018-01-15T12:00:21.782Z,3.69
2018-01-15T12:01:27.952Z,3.68
2018-01-15T12:02:36.619Z,3.74
2018-01-15T12:03:42.827Z,3.82
2018-01-15T12:04:49.361Z,3.90
2018-01-15T12:05:55.567Z,3.82
2018-01-15T12:07:01.863Z,3.78
2018-01-15T12:08:08.169Z,3.80
2018-01-15T12:09:15.147Z,3.81
2018-01-15T12:10:21.417Z,3.83
2018-01-15T12:11:27.685Z,3.83
2018-01-15T12:12:33.959Z,3.76
2018-01-15T12:13:40.208Z,3.76
2018-01-15T12:14:46.491Z,3.76
2018-01-15T12:15:52.742Z,3.82
2018-01-15T12:16:58.731Z,3.84
2018-01-15T12:18:04.991Z,3.84
2018-01-15T12:19:11.264Z,3.76
2018-01-15T12:20:17.482Z,3.86
2018-01-15T12:21:23.819Z,3.72
2018-01-15T12:22:30.127Z,3.73
2018-01-15T12:23:37.082Z,3.72
2018-01-15T12:24:43.615Z,3.71
2018-01-15T12:25:49.830Z,3.84
2018-01-15T12:26:55.758Z,3.88
2018-01-15T12:28:02.044Z,3.82
2018-01-15T12:29:08.068Z,3.76
2018-01-15T12:30:14.293Z,3.91
2018-01-15T12:31:20.308Z,4.01
2018-01-15T12:32:26.596Z,3.98
2018-01-15T12:33:32.902Z,3.99
2018-01-15T12:34:39.804Z,4.05
2018-01-15T12:35:46.091Z,4.13
2018-01-15T12:36:54.003Z,4.25
2018-01-15T12:38:00.238Z,4.17
2018-01-15T12:39:06.741Z,4.23
2018-01-15T12:40:12.991Z,4.32
2018-01-15T12:41:19.207Z,4.42
2018-01-15T12:42:25.445Z,4.11
2018-01-15T12:43:32.672Z,4.05
2018-01-15T12:44:38.981Z,4.03
2018-01-15T12:45:45.218Z,3.96
2018-01-15T12:46:51.477Z,3.92
2018-01-15T12:47:57.920Z,3.97
2018-01-15T12:49:04.083Z,3.96
2018-01-15T12:50:10.129Z,3.97
2018-01-15T12:51:16.319Z,3.96
2018-01-15T12:52:23.132Z,3.90
2018-01-15T12:53:29.453Z,3.89
2018-01-15T12:54:35.700Z,3.85
2018-01-15T12:55:47.623Z,3.81
2018-01-15T12:56:53.838Z,3.81
2018-01-15T12:58:00.024Z,3.82
2018-01-15T12:59:06.211Z,3.82
2018-01-15T13:00:12.526Z,3.81
2018-01-15T13:01:19.311Z,3.81
2018-01-15T13:02:25.500Z,3.83
2018-01-15T13:03:31.766Z,3.86
2018-01-15T13:04:38.296Z,3.84
2018-01-15T13:05:52.984Z,3.95
2018-01-15T13:06:59.834Z,3.89
2018-01-15T13:08:11.872Z,3.85
2018-01-15T13:09:18.168Z,3.92
2018-01-15T13:10:26.031Z,3.88
2018-01-15T13:11:31.643Z,3.96
2018-01-15T13:12:38.340Z,3.99
2018-01-15T13:13:44.732Z,4.03
2018-01-15T13:14:51.016Z,4.03
2018-01-15T13:15:57.540Z,4.08
2018-01-15T13:17:04.713Z,4.17
2018-01-15T13:18:10.984Z,4.04
2018-01-15T13:19:17.215Z,4.15
2018-01-15T13:20:23.505Z,4.10
2018-01-15T13:21:29.469Z,4.22
2018-01-15T13:22:35.755Z,4.26
2018-01-15T13:23:42.043Z,4.33
2018-01-15T13:24:48.291Z,4.31
2018-01-15T13:25:55.003Z,4.26
2018-01-15T13:27:01.217Z,4.32
2018-01-15T13:28:07.555Z,4.32
2018-01-15T13:29:13.792Z,4.29
2018-01-15T13:30:20.026Z,4.27
2018-01-15T13:31:26.260Z,4.36
2018-01-15T13:32:32.549Z,4.39
2018-01-15T13:33:39.420Z,4.51
2018-01-15T13:34:45.988Z,4.49
2018-01-15T13:35:52.367Z,4.35
2018-01-15T13:36:59.022Z,4.36
2018-01-15T13:38:05.383Z,4.38
2018-01-15T13:39:11.720Z,4.45
2018-01-15T13:40:17.943Z,4.45
2018-01-15T13:41:24.497Z,4.37
2018-01-15T13:42:30.741Z,4.38
2018-01-15T13:43:37.338Z,4.35
2018-01-15T13:44:44.128Z,4.37
2018-01-15T13:45:50.457Z,4.36
2018-01-15T13:46:56.492Z,4.35
2018-01-15T13:48:02.928Z,4.33
2018-01-15T13:49:09.764Z,4.35
2018-01-15T13:50:15.990Z,4.41
2018-01-15T13:51:22.424Z,4.38
2018-01-15T13:52:28.523Z,4.32
2018-01-15T13:53:34.978Z,4.31
2018-01-15T13:54:41.216Z,4.36
2018-01-15T13:55:47.933Z,4.31
2018-01-15T13:56:54.176Z,4.25
2018-01-15T13:58:00.559Z,4.23
2018-01-15T13:59:07.099Z,4.21
2018-01-15T14:00:13.578Z,4.13
2018-01-15T14:01:20.637Z,4.18
2018-01-15T14:02:26.929Z,4.13
2018-01-15T14:03:33.252Z,4.17
2018-01-15T14:04:39.551Z,4.14
2018-01-15T14:05:45.853Z,4.13
2018-01-15T14:06:52.048Z,4.09
2018-01-15T14:07:57.954Z,4.14
2018-01-15T14:09:03.689Z,4.10
2018-01-15T14:10:09.928Z,4.07
2018-01-15T14:11:16.201Z,4.08
2018-01-15T14:12:22.462Z,4.06
2018-01-15T14:13:28.751Z,4.08
2018-01-15T14:14:35.008Z,4.10
2018-01-15T14:15:41.395Z,4.16
2018-01-15T14:16:48.326Z,4.17
2018-01-15T14:17:54.611Z,4.21
2018-01-15T14:19:00.881Z,4.22
2018-01-15T14:20:07.198Z,4.23
2018-01-15T14:21:14.216Z,4.20
2018-01-15T14:22:20.653Z,4.21
2018-01-15T14:23:27.262Z,4.19
2018-01-15T14:24:34.027Z,4.24
2018-01-15T14:25:40.318Z,4.31
2018-01-15T14:26:47.788Z,4.33
2018-01-15T14:27:55.235Z,4.27
2018-01-15T14:29:01.542Z,4.30
2018-01-15T14:30:07.785Z,4.34
2018-01-15T14:31:14.048Z,4.29
2018-01-15T14:32:20.264Z,4.29
2018-01-15T14:33:26.758Z,4.25
2018-01-15T14:34:32.751Z,4.23
2018-01-15T14:35:38.975Z,4.24
2018-01-15T14:36:45.215Z,4.28
2018-01-15T14:37:52.588Z,4.21
2018-01-15T14:38:59.431Z,4.21
2018-01-15T14:40:06.088Z,4.25
2018-01-15T14:41:12.737Z,4.25
2018-01-15T14:42:19.447Z,4.19
2018-01-15T14:43:25.562Z,4.22
2018-01-15T14:44:31.885Z,4.21